createdAt,value
2023-03-11T00:00:15.645Z,988.86
2023-03-11T00:01:15.848Z,988.92
2023-03-11T00:02:16.048Z,988.94
2023-03-11T00:03:16.235Z,988.95
2023-03-11T00:04:16.341Z,988.95
2023-03-11T00:05:16.552Z,989.02
2023-03-11T00:06:16.747Z,989.00
2023-03-11T00:07:16.899Z,989.04
2023-03-11T00:08:17.070Z,989.10
2023-03-11T00:09:17.222Z,989.06
2023-03-11T00:10:17.418Z,989.08
2023-03-11T00:11:17.608Z,989.11
2023-03-11T00:12:17.772Z,989.15
2023-03-11T00:13:17.944Z,989.15
2023-03-11T00:14:18.104Z,989.12
2023-03-11T00:15:18.249Z,989.18
2023-03-11T00:16:18.440Z,989.22
2023-03-11T00:17:18.570Z,989.22
2023-03-11T00:18:18.784Z,989.27
2023-03-11T00:19:18.916Z,989.30
2023-03-11T00:20:19.067Z,989.28
2023-03-11T00:21:19.226Z,989.31
2023-03-11T00:22:19.414Z,989.31
2023-03-11T00:23:19.631Z,989.33
2023-03-11T00:24:19.786Z,989.34
2023-03-11T00:25:19.987Z,989.43
2023-03-11T00:26:20.171Z,989.41
2023-03-11T00:27:20.345Z,989.45
2023-03-11T00:28:20.526Z,989.43
2023-03-11T00:29:20.668Z,989.50
2023-03-11T00:30:20.856Z,989.54
2023-03-11T00:31:21.037Z,989.60
2023-03-11T00:32:21.239Z,989.63
2023-03-11T00:33:21.369Z,989.63
2023-03-11T00:34:21.536Z,989.74
2023-03-11T00:35:21.675Z,989.70
2023-03-11T00:36:21.878Z,989.76
2023-03-11T00:37:22.021Z,989.74
2023-03-11T00:38:22.273Z,989.79
2023-03-11T00:39:22.391Z,989.83
2023-03-11T00:40:22.542Z,989.86
2023-03-11T00:41:22.701Z,989.84
2023-03-11T00:42:22.889Z,989.87
2023-03-11T00:43:23.050Z,989.85
2023-03-11T00:44:23.232Z,989.86
2023-03-11T00:45:23.397Z,989.93
2023-03-11T00:46:23.569Z,989.98
2023-03-11T00:47:23.746Z,989.95
2023-03-11T00:48:23.890Z,990.02
2023-03-11T00:49:24.058Z,990.05
2023-03-11T00:50:24.226Z,990.07
2023-03-11T00:51:24.387Z,990.17
2023-03-11T00:52:24.531Z,990.18
2023-03-11T00:53:24.722Z,990.17
2023-03-11T00:54:24.880Z,990.24
2023-03-11T00:55:25.062Z,990.25
2023-03-11T00:56:25.213Z,990.27
2023-03-11T00:57:25.361Z,990.29
2023-03-11T00:58:25.525Z,990.38
2023-03-11T00:59:25.683Z,990.35
2023-03-11T01:00:25.882Z,990.45
2023-03-11T01:01:26.123Z,990.46
2023-03-11T01:02:26.201Z,990.48
2023-03-11T01:03:26.384Z,990.52
2023-03-11T01:04:26.561Z,990.57
2023-03-11T01:05:26.753Z,990.60
2023-03-11T01:06:35.807Z,990.62
2023-03-11T01:07:28.074Z,990.66
2023-03-11T01:08:27.249Z,990.69
2023-03-11T01:09:27.454Z,990.71
2023-03-11T01:10:27.626Z,990.75
2023-03-11T01:11:27.769Z,990.78
2023-03-11T01:12:27.964Z,990.83
2023-03-11T01:13:28.146Z,990.87
2023-03-11T01:14:28.343Z,990.90
2023-03-11T01:15:28.494Z,990.95
2023-03-11T01:16:28.673Z,990.94
2023-03-11T01:17:28.855Z,990.99
2023-03-11T01:18:29.061Z,991.02
2023-03-11T01:19:29.252Z,991.03
2023-03-11T01:20:29.401Z,991.05
2023-03-11T01:21:29.575Z,991.10
2023-03-11T01:22:29.765Z,991.10
2023-03-11T01:23:29.937Z,991.21
2023-03-11T01:24:30.164Z,991.24
2023-03-11T01:25:30.312Z,991.25
2023-03-11T01:26:30.484Z,991.26
2023-03-11T01:27:30.656Z,991.30
2023-03-11T01:28:30.829Z,991.34
2023-03-11T01:29:31.018Z,991.38
2023-03-11T01:30:31.193Z,991.41
2023-03-11T01:31:31.401Z,991.42
2023-03-11T01:32:31.599Z,991.52
2023-03-11T01:33:31.703Z,991.48
2023-03-11T01:34:31.915Z,991.53
2023-03-11T01:35:32.062Z,991.61
2023-03-11T01:36:32.216Z,991.59
2023-03-11T01:37:32.392Z,991.66
2023-03-11T01:38:32.559Z,991.67
2023-03-11T01:39:32.742Z,991.70
2023-03-11T01:40:32.922Z,991.72
2023-03-11T01:41:33.081Z,991.73
2023-03-11T01:42:33.283Z,991.76
2023-03-11T01:43:33.462Z,991.85
2023-03-11T01:44:33.640Z,991.96
2023-03-11T01:45:33.797Z,992.01
2023-03-11T01:46:34.043Z,992.00
2023-03-11T01:47:34.151Z,992.01
2023-03-11T01:48:34.348Z,992.09
2023-03-11T01:49:34.509Z,992.10
2023-03-11T01:50:34.721Z,992.12
2023-03-11T01:51:34.888Z,992.14
2023-03-11T01:52:35.075Z,992.08
2023-03-11T01:53:35.239Z,992.19
2023-03-11T01:54:35.403Z,992.24
2023-03-11T01:55:35.597Z,992.27
2023-03-11T01:56:35.785Z,992.26
2023-03-11T01:57:35.913Z,992.36
2023-03-11T01:58:36.105Z,992.44
2023-03-11T01:59:36.274Z,992.53
2023-03-11T02:00:36.457Z,992.48
2023-03-11T02:01:38.101Z,992.56
2023-03-11T02:02:36.822Z,992.58
2023-03-11T02:03:36.983Z,992.56
2023-03-11T02:04:37.149Z,992.66
2023-03-11T02:05:37.364Z,992.68
2023-03-11T02:06:37.494Z,992.86
2023-03-11T02:07:37.689Z,992.77
2023-03-11T02:08:37.865Z,992.87
2023-03-11T02:09:38.032Z,992.87
2023-03-11T02:10:38.226Z,992.92
2023-03-11T02:11:38.383Z,992.98
2023-03-11T02:12:38.553Z,993.00
2023-03-11T02:13:38.733Z,993.00
2023-03-11T02:14:38.895Z,993.11
2023-03-11T02:15:40.136Z,993.16
2023-03-11T02:16:39.230Z,993.20
2023-03-11T02:17:39.419Z,993.22
2023-03-11T02:18:39.600Z,993.19
2023-03-11T02:19:39.817Z,993.28
2023-03-11T02:20:39.966Z,993.30
2023-03-11T02:21:40.124Z,993.41
2023-03-11T02:22:40.309Z,993.39
2023-03-11T02:23:40.502Z,993.41
2023-03-11T02:24:40.730Z,993.46
2023-03-11T02:25:40.927Z,993.54
2023-03-11T02:26:40.984Z,993.55
2023-03-11T02:27:41.201Z,993.59
2023-03-11T02:28:41.359Z,993.58
2023-03-11T02:29:41.623Z,993.64
2023-03-11T02:30:41.693Z,993.63
2023-03-11T02:31:43.247Z,993.69
2023-03-11T02:32:42.115Z,993.70
2023-03-11T02:33:42.258Z,993.82
2023-03-11T02:34:42.407Z,993.77
2023-03-11T02:35:42.590Z,993.81
2023-03-11T02:36:42.759Z,993.81
2023-03-11T02:37:42.927Z,993.81
2023-03-11T02:38:43.110Z,993.89
2023-03-11T02:39:43.285Z,993.96
2023-03-11T02:40:43.500Z,993.96
2023-03-11T02:41:43.670Z,994.09
2023-03-11T02:42:43.820Z,994.09
2023-03-11T02:43:43.988Z,994.14
2023-03-11T02:44:44.154Z,994.14
2023-03-11T02:45:44.361Z,994.17
2023-03-11T02:46:44.568Z,994.22
2023-03-11T02:47:44.657Z,994.29
2023-03-11T02:48:44.843Z,994.36
2023-03-11T02:49:45.009Z,994.31
2023-03-11T02:50:45.174Z,994.43
2023-03-11T02:51:45.406Z,994.48
2023-03-11T02:52:45.562Z,994.46
2023-03-11T02:53:45.719Z,994.52
2023-03-11T02:54:45.888Z,994.54
2023-03-11T02:55:46.066Z,994.63
2023-03-11T02:56:46.266Z,994.63
2023-03-11T02:57:46.406Z,994.73
2023-03-11T02:58:46.569Z,994.76
2023-03-11T02:59:46.754Z,994.75
2023-03-11T03:00:46.941Z,994.81
2023-03-11T03:01:47.107Z,994.93
2023-03-11T03:02:47.265Z,994.90
2023-03-11T03:03:47.466Z,994.98
2023-03-11T03:04:47.618Z,994.95
2023-03-11T03:05:47.786Z,994.96
2023-03-11T03:06:47.981Z,995.02
2023-03-11T03:07:48.151Z,994.99
2023-03-11T03:08:48.329Z,995.11
2023-03-11T03:09:48.509Z,995.11
2023-03-11T03:10:48.689Z,995.18
2023-03-11T03:11:48.877Z,995.30
2023-03-11T03:12:49.050Z,995.31
2023-03-11T03:13:49.216Z,995.28
2023-03-11T03:14:49.377Z,995.35
2023-03-11T03:15:49.558Z,995.45
2023-03-11T03:16:49.834Z,995.50
2023-03-11T03:17:49.904Z,995.47
2023-03-11T03:18:50.065Z,995.61
2023-03-11T03:19:50.250Z,995.54
2023-03-11T03:20:50.415Z,995.67
2023-03-11T03:21:50.610Z,995.70
2023-03-11T03:22:50.740Z,995.75
2023-03-11T03:23:50.920Z,995.73
2023-03-11T03:24:51.107Z,995.83
2023-03-11T03:25:51.269Z,995.83
2023-03-11T03:26:51.456Z,995.81
2023-03-11T03:27:51.635Z,995.82
2023-03-11T03:28:51.827Z,995.88
2023-03-11T03:29:51.989Z,995.91
2023-03-11T03:30:52.154Z,995.95
2023-03-11T03:31:52.406Z,996.00
2023-03-11T03:32:52.583Z,996.04
2023-03-11T03:33:52.683Z,996.10
2023-03-11T03:34:52.855Z,996.11
2023-03-11T03:35:53.079Z,996.12
2023-03-11T03:36:53.239Z,996.11
2023-03-11T03:37:53.376Z,996.18
2023-03-11T03:38:53.544Z,996.24
2023-03-11T03:39:53.747Z,996.26
2023-03-11T03:40:53.883Z,996.32
2023-03-11T03:41:54.122Z,996.37
2023-03-11T03:42:54.227Z,996.32
2023-03-11T03:43:54.414Z,996.37
2023-03-11T03:44:54.583Z,996.41
2023-03-11T03:45:54.835Z,996.43
2023-03-11T03:46:54.943Z,996.49
2023-03-11T03:47:55.116Z,996.57
2023-03-11T03:48:55.295Z,996.63
2023-03-11T03:49:55.474Z,996.64
2023-03-11T03:50:55.657Z,996.65
2023-03-11T03:51:55.821Z,996.63
2023-03-11T03:52:56.009Z,996.66
2023-03-11T03:53:56.198Z,996.75
2023-03-11T03:54:56.330Z,996.74
2023-03-11T03:55:56.511Z,996.80
2023-03-11T03:56:56.683Z,996.86
2023-03-11T03:57:56.854Z,996.89
2023-03-11T03:58:57.030Z,996.87
2023-03-11T03:59:57.210Z,997.04
2023-03-11T04:00:57.362Z,997.05
2023-03-11T04:01:57.587Z,996.97
2023-03-11T04:02:57.796Z,997.07
2023-03-11T04:03:57.910Z,997.11
2023-03-11T04:04:58.082Z,997.10
2023-03-11T04:05:58.254Z,997.19
2023-03-11T04:06:58.414Z,997.16
2023-03-11T04:07:58.604Z,997.17
2023-03-11T04:08:58.797Z,997.24
2023-03-11T04:09:58.942Z,997.21
2023-03-11T04:10:59.106Z,997.27
2023-03-11T04:11:59.289Z,997.22
2023-03-11T04:12:59.484Z,997.31
2023-03-11T04:13:59.658Z,997.36
2023-03-11T04:14:59.826Z,997.30
2023-03-11T04:16:00.003Z,997.34
2023-03-11T04:17:00.268Z,997.37
2023-03-11T04:18:00.344Z,997.42
2023-03-11T04:19:00.561Z,997.50
2023-03-11T04:20:00.704Z,997.46
2023-03-11T04:21:00.870Z,997.45
2023-03-11T04:22:01.046Z,997.50
2023-03-11T04:23:01.212Z,997.59
2023-03-11T04:24:01.436Z,997.56
2023-03-11T04:25:01.562Z,997.63
2023-03-11T04:26:01.799Z,997.68
2023-03-11T04:27:01.913Z,997.63
2023-03-11T04:28:02.091Z,997.77
2023-03-11T04:29:02.271Z,997.69
2023-03-11T04:30:02.439Z,997.82
2023-03-11T04:31:02.702Z,997.81
2023-03-11T04:32:02.807Z,997.79
2023-03-11T04:33:02.985Z,997.81
2023-03-11T04:34:03.148Z,997.85
2023-03-11T04:35:03.339Z,997.93
2023-03-11T04:36:03.548Z,997.94
2023-03-11T04:37:03.669Z,997.95
2023-03-11T04:38:03.866Z,997.98
2023-03-11T04:39:04.028Z,998.02
2023-03-11T04:40:04.210Z,998.07
2023-03-11T04:41:04.392Z,998.07
2023-03-11T04:43:19.671Z,998.18
2023-03-11T04:44:19.819Z,998.12
2023-03-11T04:45:20.003Z,998.22
2023-03-11T04:46:20.188Z,998.26
2023-03-11T04:47:20.360Z,998.19
2023-03-11T04:48:20.520Z,998.26
2023-03-11T04:49:20.707Z,998.24
2023-03-11T04:50:20.898Z,998.32
2023-03-11T04:51:21.042Z,998.32
2023-03-11T04:52:21.193Z,998.32
2023-03-11T04:53:21.376Z,998.38
2023-03-11T04:54:21.543Z,998.40
2023-03-11T04:55:21.739Z,998.43
2023-03-11T04:56:21.877Z,998.48
2023-03-11T04:57:22.047Z,998.62
2023-03-11T04:58:22.229Z,998.61
2023-03-11T04:59:22.392Z,998.64
2023-03-11T05:00:22.602Z,998.60
2023-03-11T05:01:22.818Z,998.65
2023-03-11T05:02:22.934Z,998.71
2023-03-11T05:03:23.123Z,998.67
2023-03-11T05:04:23.322Z,998.71
2023-03-11T05:05:23.452Z,998.72
2023-03-11T05:06:23.623Z,998.82
2023-03-11T05:07:23.814Z,998.87
2023-03-11T05:08:24.009Z,998.86
2023-03-11T05:09:24.311Z,998.83
2023-03-11T05:10:24.347Z,998.89
2023-03-11T05:11:24.525Z,998.93
2023-03-11T05:12:24.685Z,998.94
2023-03-11T05:13:24.863Z,998.93
2023-03-11T05:14:25.040Z,999.05
2023-03-11T05:15:25.234Z,999.07
2023-03-11T05:16:25.456Z,999.01
2023-03-11T05:17:25.561Z,999.03
2023-03-11T05:18:25.703Z,999.11
2023-03-11T05:19:25.930Z,999.18
2023-03-11T05:20:26.078Z,999.23
2023-03-11T05:21:26.251Z,999.25
2023-03-11T05:22:26.435Z,999.26
2023-03-11T05:23:26.615Z,999.30
2023-03-11T05:24:26.789Z,999.29
2023-03-11T05:25:26.946Z,999.26
2023-03-11T05:26:27.122Z,999.36
2023-03-11T05:27:27.296Z,999.34
2023-03-11T05:28:27.562Z,999.29
2023-03-11T05:29:27.646Z,999.35
2023-03-11T05:30:27.816Z,999.34
2023-03-11T05:31:28.026Z,999.45
2023-03-11T05:32:28.223Z,999.48
2023-03-11T05:33:28.359Z,999.45
2023-03-11T05:34:28.540Z,999.48
2023-03-11T05:35:28.723Z,999.46
2023-03-11T05:36:28.898Z,999.47
2023-03-11T05:37:29.045Z,999.56
2023-03-11T05:38:29.245Z,999.68
2023-03-11T05:39:29.385Z,999.60
2023-03-11T05:40:29.581Z,999.72
2023-03-11T05:41:29.775Z,999.64
2023-03-11T05:42:29.948Z,999.69
2023-03-11T05:43:30.161Z,999.71
2023-03-11T05:44:30.314Z,999.75
2023-03-11T05:45:30.511Z,999.78
2023-03-11T05:46:30.693Z,999.82
2023-03-11T05:47:30.854Z,999.84
2023-03-11T05:48:31.051Z,999.82
2023-03-11T05:49:31.223Z,999.89
2023-03-11T05:50:31.383Z,999.92
2023-03-11T05:51:31.540Z,999.95
2023-03-11T05:52:31.683Z,999.92
2023-03-11T05:53:31.890Z,999.96
2023-03-11T05:54:32.033Z,999.95
2023-03-11T05:55:32.259Z,999.97
2023-03-11T05:56:32.408Z,1000.06
2023-03-11T05:57:32.590Z,1000.07
2023-03-11T05:58:32.872Z,1000.08
2023-03-11T05:59:32.936Z,1000.04
2023-03-11T06:00:33.119Z,1000.05
2023-03-11T06:01:33.284Z,1000.10
2023-03-11T06:02:33.455Z,1000.08
2023-03-11T06:03:33.635Z,1000.17
2023-03-11T06:04:33.976Z,1000.11
2023-03-11T06:05:33.969Z,1000.19
2023-03-11T06:06:34.129Z,1000.18
2023-03-11T06:07:34.290Z,1000.25
2023-03-11T06:08:34.474Z,1000.24
2023-03-11T06:09:34.655Z,1000.26
2023-03-11T06:10:34.800Z,1000.25
2023-03-11T06:11:34.965Z,1000.26
2023-03-11T06:12:35.114Z,1000.26
2023-03-11T06:13:35.358Z,1000.30
2023-03-11T06:14:35.435Z,1000.34
2023-03-11T06:15:35.629Z,1000.41
2023-03-11T06:16:35.826Z,1000.44
2023-03-11T06:17:35.959Z,1000.46
2023-03-11T06:18:36.130Z,1000.45
2023-03-11T06:19:36.296Z,1000.49
2023-03-11T06:20:36.450Z,1000.51
2023-03-11T06:21:36.614Z,1000.51
2023-03-11T06:22:39.633Z,1000.47
2023-03-11T06:23:36.981Z,1000.57
2023-03-11T06:24:37.137Z,1000.61
2023-03-11T06:25:37.301Z,1000.58
2023-03-11T06:26:37.450Z,1000.68
2023-03-11T06:27:37.626Z,1000.60
2023-03-11T06:28:37.799Z,1000.64
2023-03-11T06:29:37.967Z,1000.70
2023-03-11T06:30:38.154Z,1000.72
2023-03-11T06:31:38.354Z,1000.75
2023-03-11T06:32:38.520Z,1000.77
2023-03-11T06:33:38.714Z,1000.81
2023-03-11T06:34:38.863Z,1000.90
2023-03-11T06:35:39.096Z,1000.94
2023-03-11T06:36:39.220Z,1000.94
2023-03-11T06:37:39.411Z,1000.99
2023-03-11T06:38:39.610Z,1001.03
2023-03-11T06:39:39.791Z,1001.07
2023-03-11T06:40:39.953Z,1001.07
2023-03-11T06:41:40.112Z,1001.16
2023-03-11T06:42:40.273Z,1001.22
2023-03-11T06:43:40.463Z,1001.23
2023-03-11T06:44:40.617Z,1001.17
2023-03-11T06:45:40.881Z,1001.23
2023-03-11T06:46:40.974Z,1001.24
2023-03-11T06:47:41.207Z,1001.28
2023-03-11T06:48:41.321Z,1001.29
2023-03-11T06:49:41.513Z,1001.27
2023-03-11T06:50:41.681Z,1001.35
2023-03-11T06:51:41.861Z,1001.38
2023-03-11T06:52:42.053Z,1001.41
2023-03-11T06:53:42.277Z,1001.42
2023-03-11T06:54:42.436Z,1001.50
2023-03-11T06:55:42.600Z,1001.55
2023-03-11T06:56:42.799Z,1001.59
2023-03-11T06:57:42.967Z,1001.55
2023-03-11T06:58:43.149Z,1001.52
2023-03-11T06:59:43.381Z,1001.62
2023-03-11T07:00:43.606Z,1001.62
2023-03-11T07:01:43.702Z,1001.60
2023-03-11T07:02:43.844Z,1001.65
2023-03-11T07:03:44.065Z,1001.70
2023-03-11T07:04:44.199Z,1001.68
2023-03-11T07:05:44.420Z,1001.77
2023-03-11T07:06:44.566Z,1001.76
2023-03-11T07:07:44.735Z,1001.80
2023-03-11T07:08:44.908Z,1001.78
2023-03-11T07:09:45.102Z,1001.76
2023-03-11T07:10:45.295Z,1001.85
2023-03-11T07:11:45.482Z,1001.86
2023-03-11T07:12:45.639Z,1001.88
2023-03-11T07:13:45.845Z,1001.94
2023-03-11T07:14:45.982Z,1001.90
2023-03-11T07:15:46.162Z,1001.90
2023-03-11T07:16:46.357Z,1001.95
2023-03-11T07:17:46.521Z,1001.98
2023-03-11T07:18:46.690Z,1001.98
2023-03-11T07:19:46.882Z,1002.09
2023-03-11T07:20:47.041Z,1002.00
2023-03-11T07:21:47.230Z,1002.11
2023-03-11T07:22:47.402Z,1002.11
2023-03-11T07:23:47.578Z,1002.12
2023-03-11T07:24:47.746Z,1002.15
2023-03-11T07:25:47.931Z,1002.11
2023-03-11T07:26:48.083Z,1002.17
2023-03-11T07:27:48.306Z,1002.20
2023-03-11T07:28:48.465Z,1002.29
2023-03-11T07:29:48.614Z,1002.28
2023-03-11T07:30:48.782Z,1002.31
2023-03-11T07:31:48.973Z,1002.35
2023-03-11T07:32:49.166Z,1002.36
2023-03-11T07:33:49.322Z,1002.42
2023-03-11T07:34:49.513Z,1002.42
2023-03-11T07:35:49.771Z,1002.42
2023-03-11T07:36:49.862Z,1002.44
2023-03-11T07:37:50.025Z,1002.44
2023-03-11T07:38:50.174Z,1002.47
2023-03-11T07:39:50.364Z,1002.54
2023-03-11T07:40:50.541Z,1002.55
2023-03-11T07:41:50.704Z,1002.57
2023-03-11T07:42:50.878Z,1002.62
2023-03-11T07:43:51.069Z,1002.66
2023-03-11T07:44:51.218Z,1002.70
2023-03-11T07:45:51.430Z,1002.63
2023-03-11T07:46:51.613Z,1002.70
2023-03-11T07:47:51.796Z,1002.76
2023-03-11T07:48:51.991Z,1002.75
2023-03-11T07:49:52.129Z,1002.82
2023-03-11T07:50:52.287Z,1002.83
2023-03-11T07:51:52.488Z,1002.84
2023-03-11T07:52:52.636Z,1002.90
2023-03-11T07:53:52.797Z,1002.88
2023-03-11T07:54:52.983Z,1002.87
2023-03-11T07:55:53.164Z,1002.88
2023-03-11T07:56:53.342Z,1002.91
2023-03-11T07:57:53.561Z,1002.93
2023-03-11T07:58:53.669Z,1002.95
2023-03-11T07:59:53.827Z,1002.88
2023-03-11T08:00:53.983Z,1002.96
2023-03-11T08:01:54.166Z,1002.93
2023-03-11T08:02:54.348Z,1002.95
2023-03-11T08:03:54.496Z,1002.96
2023-03-11T08:04:54.702Z,1003.00
2023-03-11T08:05:54.826Z,1003.09
2023-03-11T08:06:54.979Z,1003.09
2023-03-11T08:07:55.213Z,1003.06
2023-03-11T08:08:55.331Z,1003.11
2023-03-11T08:09:55.488Z,1003.11
2023-03-11T08:10:55.651Z,1003.15
2023-03-11T08:11:55.820Z,1003.19
2023-03-11T08:12:56.001Z,1003.19
2023-03-11T08:13:56.156Z,1003.20
2023-03-11T08:14:56.317Z,1003.19
2023-03-11T08:15:56.572Z,1003.24
2023-03-11T08:16:56.682Z,1003.25
2023-03-11T08:17:56.801Z,1003.40
2023-03-11T08:18:56.984Z,1003.31
2023-03-11T08:19:57.143Z,1003.31
2023-03-11T08:20:57.317Z,1003.39
2023-03-11T08:21:57.499Z,1003.41
2023-03-11T08:22:58.617Z,1003.41
2023-03-11T08:23:57.798Z,1003.51
2023-03-11T08:24:57.954Z,1003.44
2023-03-11T08:25:58.116Z,1003.49
2023-03-11T08:26:58.306Z,1003.50
2023-03-11T08:27:58.443Z,1003.54
2023-03-11T08:28:58.603Z,1003.65
2023-03-11T08:29:58.756Z,1003.73
2023-03-11T08:30:58.952Z,1003.67
2023-03-11T08:31:59.113Z,1003.72
2023-03-11T08:32:59.289Z,1003.63
2023-03-11T08:33:59.430Z,1003.74
2023-03-11T08:34:59.587Z,1003.76
2023-03-11T08:35:59.839Z,1003.78
2023-03-11T08:36:59.902Z,1003.79
2023-03-11T08:38:00.084Z,1003.84
2023-03-11T08:39:00.309Z,1003.82
2023-03-11T08:40:00.375Z,1003.85
2023-03-11T08:41:00.557Z,1003.87
2023-03-11T08:42:00.731Z,1003.85
2023-03-11T08:43:00.919Z,1003.85
2023-03-11T08:44:01.046Z,1003.91
2023-03-11T08:45:01.231Z,1003.87
2023-03-11T08:46:01.506Z,1003.93
2023-03-11T08:47:01.582Z,1003.88
2023-03-11T08:48:01.744Z,1003.98
2023-03-11T08:49:01.896Z,1003.95
2023-03-11T08:50:02.098Z,1003.94
2023-03-11T08:51:02.257Z,1004.01
2023-03-11T08:52:02.395Z,1004.07
2023-03-11T08:53:02.549Z,1004.06
2023-03-11T08:54:02.707Z,1004.03
2023-03-11T08:55:02.875Z,1004.10
2023-03-11T08:56:03.055Z,1004.05
2023-03-11T08:57:03.236Z,1004.10
2023-03-11T08:58:03.388Z,1004.12
2023-03-11T08:59:03.580Z,1004.10
2023-03-11T09:00:03.734Z,1004.14
2023-03-11T09:01:03.934Z,1004.19
2023-03-11T09:02:04.070Z,1004.25
2023-03-11T09:03:04.264Z,1004.27
2023-03-11T09:04:04.411Z,1004.29
2023-03-11T09:05:04.593Z,1004.30
2023-03-11T09:06:04.822Z,1004.31
2023-03-11T09:07:04.933Z,1004.30
2023-03-11T09:08:05.791Z,1004.37
2023-03-11T09:09:05.273Z,1004.40
2023-03-11T09:10:05.474Z,1004.40
2023-03-11T09:11:05.660Z,1004.48
2023-03-11T09:12:05.841Z,1004.46
2023-03-11T09:13:06.001Z,1004.45
2023-03-11T09:14:06.156Z,1004.43
2023-03-11T09:15:06.371Z,1004.46
2023-03-11T09:16:06.522Z,1004.48
2023-03-11T09:17:06.713Z,1004.43
2023-03-11T09:18:06.902Z,1004.49
2023-03-11T09:19:07.039Z,1004.53
2023-03-11T09:20:07.205Z,1004.52
2023-03-11T09:21:07.374Z,1004.55
2023-03-11T09:22:07.534Z,1004.56
2023-03-11T09:23:07.711Z,1004.61
2023-03-11T09:24:07.896Z,1004.59
2023-03-11T09:25:08.038Z,1004.59
2023-03-11T09:26:08.205Z,1004.60
2023-03-11T09:27:08.355Z,1004.65
2023-03-11T09:28:08.532Z,1004.66
2023-03-11T09:29:08.712Z,1004.66
2023-03-11T09:30:08.923Z,1004.70
2023-03-11T09:31:09.133Z,1004.68
2023-03-11T09:32:09.198Z,1004.71
2023-03-11T09:33:09.399Z,1004.65
2023-03-11T09:34:09.602Z,1004.69
2023-03-11T09:35:09.748Z,1004.79
2023-03-11T09:36:09.905Z,1004.74
2023-03-11T09:37:10.066Z,1004.74
2023-03-11T09:38:10.254Z,1004.78
2023-03-11T09:39:10.411Z,1004.79
2023-03-11T09:40:10.570Z,1004.78
2023-03-11T09:41:10.741Z,1004.79
2023-03-11T09:42:10.931Z,1004.84
2023-03-11T09:43:11.129Z,1004.79
2023-03-11T09:44:11.306Z,1004.87
2023-03-11T09:45:11.453Z,1004.91
2023-03-11T09:46:11.612Z,1004.91
2023-03-11T09:47:11.811Z,1004.93
2023-03-11T09:48:11.995Z,1004.88
2023-03-11T09:49:12.132Z,1004.89
2023-03-11T09:50:12.286Z,1004.95
2023-03-11T09:51:12.472Z,1004.95
2023-03-11T09:52:12.633Z,1004.94
2023-03-11T09:53:12.814Z,1004.95
2023-03-11T09:54:12.993Z,1004.99
2023-03-11T09:55:13.142Z,1004.99
2023-03-11T09:56:13.312Z,1005.00
2023-03-11T09:57:13.490Z,1005.03
2023-03-11T09:58:13.675Z,1005.11
2023-03-11T09:59:13.843Z,1005.00
2023-03-11T10:00:14.056Z,1005.11
2023-03-11T10:01:14.194Z,1005.13
2023-03-11T10:02:14.471Z,1005.09
2023-03-11T10:03:14.590Z,1005.11
2023-03-11T10:04:14.719Z,1005.13
2023-03-11T10:05:14.867Z,1005.18
2023-03-11T10:06:15.020Z,1005.18
2023-03-11T10:07:15.188Z,1005.23
2023-03-11T10:08:15.357Z,1005.23
2023-03-11T10:09:15.547Z,1005.29
2023-03-11T10:10:15.707Z,1005.32
2023-03-11T10:11:15.860Z,1005.37
2023-03-11T10:12:16.047Z,1005.38
2023-03-11T10:13:16.202Z,1005.40
2023-03-11T10:14:16.355Z,1005.38
2023-03-11T10:15:16.566Z,1005.41
2023-03-11T10:16:16.741Z,1005.36
2023-03-11T10:17:16.912Z,1005.41
2023-03-11T10:18:17.097Z,1005.38
2023-03-11T10:19:17.269Z,1005.42
2023-03-11T10:20:17.453Z,1005.34
2023-03-11T10:21:17.627Z,1005.38
2023-03-11T10:22:17.835Z,1005.44
2023-03-11T10:23:17.984Z,1005.41
2023-03-11T10:24:18.154Z,1005.42
2023-03-11T10:25:18.337Z,1005.44
2023-03-11T10:26:18.514Z,1005.45
2023-03-11T10:27:18.719Z,1005.51
2023-03-11T10:28:18.883Z,1005.51
2023-03-11T10:29:19.062Z,1005.52
2023-03-11T10:30:19.219Z,1005.57
2023-03-11T10:31:19.429Z,1005.56
2023-03-11T10:32:19.699Z,1005.59
2023-03-11T10:33:19.745Z,1005.64
2023-03-11T10:34:19.912Z,1005.68
2023-03-11T10:35:20.073Z,1005.68
2023-03-11T10:36:20.241Z,1005.69
2023-03-11T10:37:20.424Z,1005.71
2023-03-11T10:38:20.591Z,1005.77
2023-03-11T10:39:20.758Z,1005.82
2023-03-11T10:40:23.350Z,1005.77
2023-03-11T10:41:21.108Z,1005.85
2023-03-11T10:42:21.293Z,1005.87
2023-03-11T10:43:21.443Z,1005.82
2023-03-11T10:44:21.606Z,1005.89
2023-03-11T10:45:21.805Z,1005.90
2023-03-11T10:46:21.960Z,1005.87
2023-03-11T10:47:22.137Z,1005.86
2023-03-11T10:48:22.327Z,1005.84
2023-03-11T10:49:22.483Z,1005.83
2023-03-11T10:50:22.657Z,1005.85
2023-03-11T10:51:22.879Z,1005.87
2023-03-11T10:52:23.167Z,1005.82
2023-03-11T10:53:23.169Z,1005.83
2023-03-11T10:54:23.346Z,1005.94
2023-03-11T10:55:23.499Z,1005.90
2023-03-11T10:56:23.670Z,1005.86
2023-03-11T10:57:23.908Z,1005.93
2023-03-11T10:58:24.028Z,1005.98
2023-03-11T10:59:24.210Z,1005.94
2023-03-11T11:00:24.373Z,1005.93
2023-03-11T11:01:24.613Z,1005.97
2023-03-11T11:02:24.718Z,1006.01
2023-03-11T11:03:24.900Z,1005.93
2023-03-11T11:04:25.069Z,1005.97
2023-03-11T11:05:25.232Z,1006.01
2023-03-11T11:06:25.438Z,1006.00
2023-03-11T11:07:25.591Z,1005.99
2023-03-11T11:08:25.750Z,1006.00
2023-03-11T11:09:27.095Z,1006.05
2023-03-11T11:10:26.080Z,1006.02
2023-03-11T11:11:26.283Z,1006.00
2023-03-11T11:12:26.423Z,1006.08
2023-03-11T11:13:26.585Z,1006.11
2023-03-11T11:14:26.742Z,1006.12
2023-03-11T11:15:26.909Z,1006.08
2023-03-11T11:16:27.146Z,1006.04
2023-03-11T11:17:27.238Z,1006.15
2023-03-11T11:18:27.409Z,1006.12
2023-03-11T11:19:27.575Z,1006.07
2023-03-11T11:20:27.760Z,1006.07
2023-03-11T11:21:27.944Z,1006.07
2023-03-11T11:22:28.077Z,1006.09
2023-03-11T11:23:28.236Z,1006.06
2023-03-11T11:24:28.448Z,1006.04
2023-03-11T11:25:28.610Z,1006.11
2023-03-11T11:26:28.764Z,1006.11
2023-03-11T11:27:28.926Z,1006.09
2023-03-11T11:28:29.078Z,1006.11
2023-03-11T11:29:29.237Z,1006.12
2023-03-11T11:30:29.505Z,1006.09
2023-03-11T11:31:29.568Z,1006.11
2023-03-11T11:32:29.816Z,1006.15
2023-03-11T11:33:29.939Z,1006.20
2023-03-11T11:34:30.112Z,1006.20
2023-03-11T11:35:30.298Z,1006.19
2023-03-11T11:36:30.410Z,1006.15
2023-03-11T11:37:30.578Z,1006.18
2023-03-11T11:38:30.770Z,1006.17
2023-03-11T11:39:30.921Z,1006.25
2023-03-11T11:40:31.110Z,1006.21
2023-03-11T11:41:31.240Z,1006.25
2023-03-11T11:42:31.429Z,1006.27
2023-03-11T11:43:31.581Z,1006.32
2023-03-11T11:44:31.767Z,1006.31
2023-03-11T11:45:31.943Z,1006.25
2023-03-11T11:46:32.277Z,1006.23
2023-03-11T11:47:32.291Z,1006.30
2023-03-11T11:48:32.451Z,1006.26
2023-03-11T11:49:32.640Z,1006.32
2023-03-11T11:50:32.812Z,1006.28
2023-03-11T11:51:32.978Z,1006.32
2023-03-11T11:52:33.141Z,1006.30
2023-03-11T11:53:33.309Z,1006.33
2023-03-11T11:54:33.480Z,1006.31
2023-03-11T11:55:33.636Z,1006.32
2023-03-11T11:56:33.815Z,1006.32
2023-03-11T11:57:34.054Z,1006.29
2023-03-11T11:58:34.124Z,1006.36
2023-03-11T11:59:34.303Z,1006.37
2023-03-11T12:00:34.466Z,1006.39
2023-03-11T12:01:34.610Z,1006.43
2023-03-11T12:02:34.772Z,1006.42
2023-03-11T12:03:35.016Z,1006.38
2023-03-11T12:04:35.113Z,1006.39
2023-03-11T12:05:35.363Z,1006.38
2023-03-11T12:06:35.496Z,1006.40
2023-03-11T12:07:35.654Z,1006.38
2023-03-11T12:08:35.818Z,1006.45
2023-03-11T12:09:35.991Z,1006.45
2023-03-11T12:10:36.159Z,1006.46
2023-03-11T12:11:36.345Z,1006.40
2023-03-11T12:12:36.523Z,1006.39
2023-03-11T12:13:36.685Z,1006.39
2023-03-11T12:14:36.858Z,1006.42
2023-03-11T12:15:37.069Z,1006.40
2023-03-11T12:16:37.205Z,1006.49
2023-03-11T12:17:37.385Z,1006.39
2023-03-11T12:18:37.558Z,1006.29
2023-03-11T12:19:37.716Z,1006.36